Hovedside
METAR-TAF:

METAR-TAF

Lufthavner :

Seinäjoki lufthavn

Seinäjoki-Ilmajoki, Finland

breddegrad: 62-41-37N, lengdegrad: 022-49-55E, høyde over havet: 91 m

Gjeldene værobservasjon

Denne rapporten ble laget for 25 minutter siden, klokken 03:50 UTC
Vind 6 kt fra Vest-sørvest, skiftende mellom Sør og Vest-nordvest
Temperatur 9°C
Luftfuktighet 93%
Trykk 999 hPa
Sikt 10 km eller mer
Få skyer i en høyde av 1100 ft
Spredte skyer i en høyde av 1400 ft
Brutte skyer i en høyde av 2300 ft
lett regn

METAR: EFSI 230350Z AUTO 24006KT 190V290 9999 -RA FEW011 SCT014 BKN023 09/08 Q0999

Tid: 07:15 (04:15 UTC)


TAF: fraværende

Værobservasjoner og værvarsel for over 4000 flyplasser (METAR- og TAF-rapporter).

Tilgjengelige stasjoner er representert av de røde og gule prikkene på kartet.

Hold musepekeren over prikken for å se navnet på stasjonen.

Klikk så for å se værobservasjoner og -varsler.

For å forandre kartet kan du klikke på den grønne knappen med svart kryss for å zoome inn, på den grønne knappen med strek for å zoome ut, eller på de grønne pilene for å se tilstøtende kart.


METAR-TAF: